Time;durP1;ratioP1;P1;durP2;ratioP2;P2;SDS_P1;SDS_P2;PMS_P1;PMS_P2;Temp;Humidity;BMP_temperature;BMP_pressure;BME280_temperature;BME280_humidity;BME280_pressure;Samples;Min_cycle;Max_cycle;Signal;HPM_P1;HPM_P2
2023/05/05 00:00:53;;;;;;;5.13;4.05;;;16.90;91.00;;;;;;4991856;28;20050;-76
2023/05/05 00:03:23;;;;;;;7.28;5.10;;;16.90;91.30;;;;;;4990264;28;20101;-76
2023/05/05 00:05:49;;;;;;;10.85;4.82;;;16.90;91.10;;;;;;4989927;28;20430;-75
2023/05/05 00:08:16;;;;;;;7.40;4.60;;;16.90;91.10;;;;;;4988209;28;20033;-75
2023/05/05 00:10:44;;;;;;;10.10;4.95;;;16.90;91.20;;;;;;4972360;28;20041;-75
2023/05/05 00:13:11;;;;;;;8.65;4.72;;;16.90;91.20;;;;;;4991641;28;20105;-76
2023/05/05 00:15:37;;;;;;;5.78;4.43;;;16.90;91.40;;;;;;4988917;28;20481;-75
2023/05/05 00:18:09;;;;;;;6.63;4.32;;;16.80;91.40;;;;;;4990717;28;20062;-75
2023/05/05 00:20:35;;;;;;;7.07;4.90;;;16.80;91.50;;;;;;4989891;28;20114;-75
2023/05/05 00:23:00;;;;;;;9.07;4.97;;;16.80;91.60;;;;;;4991237;28;20068;-76
2023/05/05 00:25:26;;;;;;;7.47;5.22;;;16.80;91.70;;;;;;4990972;28;20446;-75
2023/05/05 00:27:52;;;;;;;6.65;4.97;;;16.70;91.90;;;;;;4989042;28;20442;-75
2023/05/05 00:30:21;;;;;;;10.20;5.28;;;16.70;91.90;;;;;;4990933;28;20030;-76
2023/05/05 00:32:56;;;;;;;9.73;5.43;;;16.70;92.10;;;;;;4978451;28;20488;-75
2023/05/05 00:35:21;;;;;;;8.45;5.13;;;16.60;92.20;;;;;;4991587;28;20029;-76
2023/05/05 00:37:48;;;;;;;7.75;4.97;;;16.60;92.20;;;;;;4989600;28;20030;-75
2023/05/05 00:40:14;;;;;;;8.88;5.00;;;16.50;92.40;;;;;;4991404;28;20478;-76
2023/05/05 00:42:43;;;;;;;9.60;5.57;;;16.50;92.50;;;;;;4989390;28;20074;-74
2023/05/05 00:45:13;;;;;;;7.97;5.05;;;16.50;92.70;;;;;;4996547;28;20022;-75
2023/05/05 00:47:52;;;;;;;7.70;4.70;;;16.50;92.70;;;;;;4987942;28;20421;-76
2023/05/05 00:50:22;;;;;;;12.05;5.40;;;16.50;92.80;;;;;;4990042;28;20042;-75
2023/05/05 00:52:48;;;;;;;8.27;4.80;;;16.40;92.90;;;;;;4986315;28;20508;-77
2023/05/05 00:55:14;;;;;;;6.20;4.40;;;16.40;93.00;;;;;;4988899;28;20473;-77
2023/05/05 00:57:43;;;;;;;11.57;5.40;;;16.40;93.10;;;;;;4992200;28;20033;-74
2023/05/05 01:00:12;;;;;;;7.22;4.43;;;16.40;93.30;;;;;;4994306;28;20109;-75
2023/05/05 01:02:38;;;;;;;11.93;5.63;;;16.40;93.40;;;;;;4990769;28;20034;-76
2023/05/05 01:05:05;;;;;;;8.73;5.22;;;16.40;93.50;;;;;;4989573;28;20030;-76
2023/05/05 01:07:47;;;;;;;7.25;5.55;;;16.30;93.60;;;;;;4991883;28;20061;-73
2023/05/05 01:10:39;;;;;;;7.72;4.85;;;16.30;93.70;;;;;;4988505;28;20519;-76
2023/05/05 01:13:35;;;;;;;8.60;5.50;;;16.30;93.90;;;;;;4974071;28;20593;-74
2023/05/05 01:16:11;;;;;;;7.95;6.10;;;16.30;94.00;;;;;;4987569;28;20438;-75
2023/05/05 01:18:55;;;;;;;6.70;5.07;;;16.20;94.00;;;;;;4989836;28;20528;-74
2023/05/05 01:21:26;;;;;;;7.90;4.80;;;16.20;94.20;;;;;;4992075;28;20023;-75
2023/05/05 01:24:05;;;;;;;6.65;4.82;;;16.20;94.30;;;;;;4994504;28;20129;-78
2023/05/05 01:26:48;;;;;;;9.00;4.55;;;16.20;94.40;;;;;;4997363;28;20030;-79
2023/05/05 01:29:52;;;;;;;7.70;5.28;;;16.20;94.50;;;;;;5001327;28;20030;-78
2023/05/05 01:32:36;;;;;;;9.05;4.63;;;16.20;94.70;;;;;;5001049;28;20172;-79
2023/05/05 01:35:18;;;;;;;6.10;4.63;;;16.10;94.80;;;;;;5002449;28;20041;-77
2023/05/05 01:38:01;;;;;;;7.78;4.90;;;16.10;94.90;;;;;;4997744;28;20084;-78
2023/05/05 01:40:32;;;;;;;5.63;4.63;;;16.10;95.10;;;;;;5000913;28;20054;-79
2023/05/05 01:43:00;;;;;;;7.55;4.97;;;16.10;95.30;;;;;;4998242;28;20409;-78
2023/05/05 01:45:30;;;;;;;5.95;4.45;;;16.00;95.40;;;;;;4995209;28;20034;-79
2023/05/05 01:47:58;;;;;;;7.72;4.90;;;16.00;95.50;;;;;;4996015;28;20401;-79
2023/05/05 01:50:27;;;;;;;8.93;4.85;;;16.00;95.60;;;;;;4997130;28;20496;-78
2023/05/05 01:52:54;;;;;;;5.97;4.72;;;16.00;95.80;;;;;;4993902;28;20038;-78
2023/05/05 01:55:23;;;;;;;6.47;4.70;;;16.00;95.90;;;;;;5000106;28;20041;-79
2023/05/05 01:57:57;;;;;;;6.65;4.82;;;16.00;96.00;;;;;;4995581;28;20153;-79
2023/05/05 02:00:24;;;;;;;8.18;4.78;;;16.00;96.10;;;;;;4995063;28;20026;-79
2023/05/05 02:02:50;;;;;;;6.82;4.30;;;16.00;96.20;;;;;;4995836;28;20026;-77
2023/05/05 02:05:21;;;;;;;7.05;4.65;;;15.90;96.30;;;;;;4993905;28;20027;-80
2023/05/05 02:07:49;;;;;;;9.40;4.72;;;15.90;96.40;;;;;;4994427;28;20034;-80
2023/05/05 02:10:20;;;;;;;8.77;4.63;;;15.90;96.60;;;;;;4995794;28;20049;-79
2023/05/05 02:12:50;;;;;;;6.68;4.53;;;15.90;96.70;;;;;;4994662;28;20094;-79
2023/05/05 02:15:16;;;;;;;9.93;3.72;;;15.90;96.80;;;;;;4996832;28;20058;-78
2023/05/05 02:17:44;;;;;;;8.40;4.90;;;15.80;96.90;;;;;;4997899;28;20026;-78
2023/05/05 02:20:14;;;;;;;8.85;4.97;;;15.90;97.10;;;;;;5000129;28;20697;-80
2023/05/05 02:22:40;;;;;;;9.52;4.70;;;15.90;97.20;;;;;;4996083;28;20500;-78
2023/05/05 02:25:07;;;;;;;7.15;4.28;;;15.80;97.20;;;;;;4995169;28;20031;-79
2023/05/05 02:27:34;;;;;;;7.10;4.68;;;15.80;97.40;;;;;;4995330;28;20022;-79
2023/05/05 02:30:05;;;;;;;6.38;4.13;;;15.80;97.60;;;;;;4982124;28;20026;-77
2023/05/05 02:32:36;;;;;;;6.95;4.72;;;15.80;97.70;;;;;;4996079;28;20041;-79
2023/05/05 02:35:09;;;;;;;8.38;4.32;;;15.70;97.80;;;;;;5001964;28;20022;-79
2023/05/05 02:37:37;;;;;;;5.50;4.20;;;15.70;98.00;;;;;;4993879;28;20049;-79
2023/05/05 02:40:06;;;;;;;8.57;4.70;;;15.60;98.10;;;;;;4991972;28;20034;-79
2023/05/05 02:42:36;;;;;;;8.40;4.85;;;15.60;98.30;;;;;;4993076;28;20033;-78
2023/05/05 02:45:08;;;;;;;4.93;3.83;;;15.60;98.50;;;;;;4995233;28;20062;-79
2023/05/05 02:47:35;;;;;;;7.20;4.55;;;15.50;98.70;;;;;;4978419;28;20038;-79
2023/05/05 02:50:02;;;;;;;12.80;5.95;;;15.50;98.90;;;;;;4994728;28;20572;-78
2023/05/05 02:52:28;;;;;;;10.55;6.70;;;15.40;99.40;;;;;;4992864;28;20849;-78
2023/05/05 02:54:53;;;;;;;10.77;6.40;;;15.40;99.70;;;;;;4993426;28;20022;-79
2023/05/05 02:57:26;;;;;;;10.13;6.75;;;15.40;99.90;;;;;;4994524;28;20037;-78
2023/05/05 03:00:27;;;;;;;11.02;7.38;;;15.40;99.90;;;;;;4994075;28;20030;-80
2023/05/05 03:03:15;;;;;;;11.40;7.45;;;15.40;99.90;;;;;;4994274;28;20030;-77
2023/05/05 03:05:59;;;;;;;9.95;6.43;;;15.40;99.90;;;;;;4978156;28;20452;-78
2023/05/05 03:08:58;;;;;;;8.35;5.80;;;15.30;99.90;;;;;;4996696;28;20030;-79
2023/05/05 03:11:41;;;;;;;8.05;4.82;;;15.30;99.90;;;;;;4991370;28;20038;-79
2023/05/05 03:14:10;;;;;;;6.80;4.47;;;15.30;99.90;;;;;;4992552;28;20030;-80
2023/05/05 03:16:39;;;;;;;6.63;4.97;;;15.20;99.90;;;;;;4995555;28;20026;-80
2023/05/05 03:19:09;;;;;;;7.63;5.13;;;15.20;99.90;;;;;;4995172;28;20501;-79
2023/05/05 03:21:35;;;;;;;8.60;4.43;;;15.10;99.90;;;;;;4996955;28;20025;-78
2023/05/05 03:24:18;;;;;;;8.50;4.47;;;15.10;99.90;;;;;;4992521;28;20022;-78
2023/05/05 03:26:45;;;;;;;10.00;4.47;;;15.10;99.90;;;;;;4994962;28;20033;-80
2023/05/05 03:29:20;;;;;;;6.60;5.07;;;15.10;99.90;;;;;;4995388;28;20046;-78
2023/05/05 03:31:45;;;;;;;8.60;4.97;;;15.10;99.90;;;;;;4992967;28;20109;-78
2023/05/05 03:34:20;;;;;;;7.95;5.10;;;15.10;99.90;;;;;;4994136;28;20452;-80
2023/05/05 03:36:46;;;;;;;9.38;5.03;;;15.00;99.90;;;;;;4994170;28;20026;-81
2023/05/05 03:39:14;;;;;;;8.88;4.47;;;15.10;99.90;;;;;;4996315;28;20094;-81
2023/05/05 03:41:40;;;;;;;6.88;4.40;;;15.10;99.90;;;;;;4991118;28;20098;-80
2023/05/05 03:44:06;;;;;;;8.15;4.70;;;15.10;99.90;;;;;;4996643;28;20084;-80
2023/05/05 03:46:34;;;;;;;10.32;4.47;;;15.00;99.90;;;;;;4993681;28;20097;-79
2023/05/05 03:49:03;;;;;;;5.28;4.40;;;15.00;99.90;;;;;;4993485;28;20058;-79
2023/05/05 03:51:31;;;;;;;5.38;4.28;;;15.00;99.90;;;;;;4995248;28;20337;-79
2023/05/05 03:53:57;;;;;;;6.60;3.95;;;15.00;99.90;;;;;;4992837;28;20050;-78
2023/05/05 03:56:23;;;;;;;7.05;4.50;;;15.00;99.90;;;;;;4992142;28;25635;-80
2023/05/05 03:58:51;;;;;;;5.53;4.10;;;15.00;99.90;;;;;;4998004;28;20100;-80
2023/05/05 04:01:17;;;;;;;6.70;4.55;;;15.00;99.90;;;;;;4995818;28;20022;-80
2023/05/05 04:03:42;;;;;;;7.47;4.63;;;15.00;99.90;;;;;;4997537;28;20097;-79
2023/05/05 04:06:08;;;;;;;11.88;4.32;;;15.00;99.90;;;;;;4994639;28;20023;-79
2023/05/05 04:08:43;;;;;;;7.10;3.88;;;15.10;99.90;;;;;;4996086;28;20116;-78
2023/05/05 04:11:08;;;;;;;6.28;4.43;;;15.00;99.90;;;;;;4988897;28;20030;-80
2023/05/05 04:13:34;;;;;;;5.15;4.10;;;15.10;99.90;;;;;;4982880;28;20029;-78
2023/05/05 04:16:00;;;;;;;4.72;4.10;;;15.10;99.90;;;;;;4997694;28;20042;-79
2023/05/05 04:18:25;;;;;;;8.07;4.38;;;15.10;99.90;;;;;;4997254;28;20049;-78
2023/05/05 04:20:51;;;;;;;5.65;3.50;;;15.20;99.90;;;;;;4992147;28;20033;-78
2023/05/05 04:23:16;;;;;;;7.65;4.10;;;15.10;99.90;;;;;;4997881;28;20114;-79
2023/05/05 04:25:42;;;;;;;6.50;3.88;;;15.20;99.90;;;;;;4978874;28;20553;-81
2023/05/05 04:28:08;;;;;;;5.78;4.03;;;15.20;99.90;;;;;;4998483;28;20318;-79
2023/05/05 04:30:33;;;;;;;7.00;4.03;;;15.20;99.90;;;;;;4998030;28;20026;-79
2023/05/05 04:32:59;;;;;;;9.63;4.57;;;15.30;99.90;;;;;;4997564;28;20050;-78
2023/05/05 04:35:25;;;;;;;7.30;4.18;;;15.30;99.90;;;;;;4997260;28;20042;-80
2023/05/05 04:37:52;;;;;;;8.65;4.50;;;15.30;99.90;;;;;;4974330;28;20490;-81
2023/05/05 04:40:17;;;;;;;7.25;3.80;;;15.30;99.90;;;;;;4997597;28;20046;-79
2023/05/05 04:42:43;;;;;;;6.70;3.38;;;15.30;99.90;;;;;;4984967;28;20031;-79
2023/05/05 04:45:09;;;;;;;11.15;4.10;;;15.40;99.90;;;;;;5000413;28;20991;-78
2023/05/05 04:47:42;;;;;;;10.63;3.88;;;15.40;99.90;;;;;;4992615;28;20472;-79
2023/05/05 04:50:08;;;;;;;8.77;3.70;;;15.50;99.90;;;;;;5001135;28;20031;-80
2023/05/05 04:52:36;;;;;;;8.93;4.53;;;15.50;99.90;;;;;;4996916;28;20023;-79
2023/05/05 04:55:05;;;;;;;6.00;3.00;;;15.50;99.90;;;;;;4994984;28;20049;-79
2023/05/05 04:57:31;;;;;;;5.18;3.70;;;15.50;99.90;;;;;;4995550;28;20026;-80
2023/05/05 04:59:58;;;;;;;9.35;4.05;;;15.60;99.90;;;;;;4995974;28;20516;-78
2023/05/05 05:02:24;;;;;;;6.88;3.70;;;15.60;99.90;;;;;;4993251;28;20029;-79
2023/05/05 05:04:53;;;;;;;9.45;4.55;;;15.70;99.90;;;;;;4992903;28;20418;-78
2023/05/05 05:07:18;;;;;;;8.05;4.13;;;15.70;99.90;;;;;;5002149;28;20042;-77
2023/05/05 05:09:44;;;;;;;7.32;3.75;;;15.70;99.90;;;;;;4997129;28;20029;-80
2023/05/05 05:12:10;;;;;;;6.18;3.83;;;15.70;99.90;;;;;;5005015;28;20034;-79
2023/05/05 05:14:42;;;;;;;15.90;4.50;;;15.80;99.90;;;;;;4994596;28;20106;-71
2023/05/05 05:17:07;;;;;;;7.63;3.78;;;15.80;99.90;;;;;;4992196;28;20092;-71
2023/05/05 05:19:33;;;;;;;5.55;3.35;;;15.80;99.90;;;;;;4993986;28;20505;-72
2023/05/05 05:21:59;;;;;;;8.52;4.25;;;15.80;99.90;;;;;;4997604;28;20098;-72
2023/05/05 05:24:25;;;;;;;6.43;3.92;;;15.80;99.90;;;;;;4989797;28;20053;-73
2023/05/05 05:26:51;;;;;;;6.78;4.20;;;15.90;99.90;;;;;;4992459;28;20027;-80
2023/05/05 05:29:22;;;;;;;8.02;4.30;;;15.90;99.90;;;;;;5000997;28;20027;-80
2023/05/05 05:31:48;;;;;;;8.25;4.07;;;15.90;99.90;;;;;;5002941;28;20033;-79
2023/05/05 05:34:14;;;;;;;6.78;3.83;;;16.00;99.90;;;;;;5005309;28;20015;-80
2023/05/05 05:36:42;;;;;;;8.32;4.00;;;16.00;99.90;;;;;;4986825;28;20029;-80
2023/05/05 05:39:08;;;;;;;10.43;4.63;;;16.00;99.90;;;;;;4986512;28;20408;-80
2023/05/05 05:41:33;;;;;;;9.32;4.05;;;16.00;99.90;;;;;;5007880;28;20085;-80
2023/05/05 05:44:02;;;;;;;7.18;4.50;;;16.10;99.90;;;;;;5004746;28;20027;-79
2023/05/05 05:46:27;;;;;;;6.45;4.47;;;16.10;99.90;;;;;;5002685;28;20046;-78
2023/05/05 05:48:53;;;;;;;9.90;4.25;;;16.10;99.90;;;;;;5001546;28;20034;-79
2023/05/05 05:51:19;;;;;;;10.70;6.45;;;16.20;99.90;;;;;;4998118;28;20026;-79
2023/05/05 05:53:50;;;;;;;11.43;6.20;;;16.20;99.90;;;;;;5001358;28;20044;-79
2023/05/05 05:56:20;;;;;;;9.38;5.90;;;16.20;99.90;;;;;;4997004;28;20081;-78
2023/05/05 05:58:50;;;;;;;12.88;5.95;;;16.20;99.90;;;;;;4998816;28;20042;-80
2023/05/05 06:01:15;;;;;;;10.25;5.25;;;16.20;99.90;;;;;;4981900;28;20022;-79
2023/05/05 06:03:44;;;;;;;7.35;5.45;;;16.30;99.90;;;;;;4982721;28;20019;-79
2023/05/05 06:06:10;;;;;;;7.47;5.57;;;16.40;99.90;;;;;;5000010;28;20045;-79
2023/05/05 06:08:35;;;;;;;8.90;5.47;;;16.40;99.90;;;;;;4982936;28;20545;-79
2023/05/05 06:11:01;;;;;;;8.20;5.82;;;16.50;99.90;;;;;;5000440;28;20023;-78
2023/05/05 06:13:27;;;;;;;9.38;5.75;;;16.50;99.90;;;;;;5001028;28;20510;-81
2023/05/05 06:15:58;;;;;;;7.93;5.93;;;16.60;99.90;;;;;;4999456;28;20035;-78
2023/05/05 06:18:24;;;;;;;8.65;6.00;;;16.70;99.90;;;;;;4998260;28;20018;-79
2023/05/05 06:20:51;;;;;;;9.43;6.07;;;16.70;99.90;;;;;;4982263;28;20039;-79
2023/05/05 06:23:17;;;;;;;12.75;6.35;;;16.80;99.90;;;;;;4982890;28;20419;-79
2023/05/05 06:25:42;;;;;;;14.13;7.05;;;16.90;99.90;;;;;;5003269;28;20054;-79
2023/05/05 06:28:08;;;;;;;12.57;6.45;;;16.90;99.90;;;;;;5002244;28;20097;-78
2023/05/05 06:30:36;;;;;;;9.63;5.85;;;17.00;99.90;;;;;;5006437;28;20098;-80
2023/05/05 06:33:02;;;;;;;8.73;5.65;;;17.00;99.90;;;;;;5003367;28;20034;-81
2023/05/05 06:35:29;;;;;;;10.57;5.38;;;17.10;99.90;;;;;;4999827;28;20210;-80
2023/05/05 06:38:00;;;;;;;7.38;5.50;;;17.20;99.90;;;;;;4999943;28;20029;-80
2023/05/05 06:40:32;;;;;;;12.20;5.93;;;17.30;99.90;;;;;;4999378;28;20014;-77
2023/05/05 06:42:57;;;;;;;9.18;5.07;;;17.30;99.90;;;;;;5002312;28;20030;-79
2023/05/05 06:45:23;;;;;;;16.55;5.95;;;17.40;99.90;;;;;;5004492;28;20053;-79
2023/05/05 06:47:53;;;;;;;8.50;5.20;;;17.50;99.90;;;;;;4997748;28;20030;-79
2023/05/05 06:50:24;;;;;;;10.30;5.63;;;17.60;99.90;;;;;;5001961;28;20057;-80
2023/05/05 06:52:51;;;;;;;11.43;5.05;;;17.70;99.90;;;;;;5003573;28;20428;-80
2023/05/05 06:55:17;;;;;;;7.85;4.60;;;17.80;99.90;;;;;;5000720;28;20381;-79
2023/05/05 06:57:44;;;;;;;5.18;3.85;;;17.90;99.90;;;;;;5003489;28;20025;-81
2023/05/05 07:00:10;;;;;;;6.38;3.88;;;18.00;99.90;;;;;;5001544;28;20026;-80
2023/05/05 07:02:37;;;;;;;5.80;3.55;;;18.20;99.90;;;;;;5014689;28;20073;-80
2023/05/05 07:05:06;;;;;;;4.13;2.55;;;18.20;99.90;;;;;;5014547;28;20027;-80
2023/05/05 07:07:32;;;;;;;4.75;2.47;;;18.40;99.90;;;;;;4997924;28;21023;-80
2023/05/05 07:09:57;;;;;;;4.28;2.35;;;18.40;99.90;;;;;;5003462;28;20068;-80
2023/05/05 07:12:23;;;;;;;6.28;2.33;;;18.50;99.90;;;;;;4997219;28;20034;-81
2023/05/05 07:14:51;;;;;;;3.85;2.08;;;18.60;99.90;;;;;;4996077;28;20027;-81
2023/05/05 07:17:17;;;;;;;7.30;2.33;;;18.60;99.90;;;;;;4998519;28;20019;-82
2023/05/05 07:19:43;;;;;;;3.10;1.92;;;18.60;99.90;;;;;;4997738;28;20366;-80
2023/05/05 07:22:14;;;;;;;8.05;2.78;;;18.70;99.90;;;;;;4999234;28;20030;-81
2023/05/05 07:24:40;;;;;;;1.80;1.48;;;18.70;99.90;;;;;;4993078;28;20034;-78
2023/05/05 07:27:12;;;;;;;4.70;2.20;;;18.80;99.90;;;;;;4989970;28;20038;-78
2023/05/05 07:29:41;;;;;;;6.30;2.10;;;18.80;99.90;;;;;;4990487;28;20037;-78
2023/05/05 07:32:15;;;;;;;2.45;2.20;;;18.80;99.90;;;;;;4993940;28;20035;-77
2023/05/05 07:34:41;;;;;;;3.47;2.00;;;18.80;99.90;;;;;;4993290;28;20019;-78
2023/05/05 07:37:07;;;;;;;3.00;2.22;;;18.80;99.90;;;;;;4994214;28;20034;-79
2023/05/05 07:39:41;;;;;;;3.22;2.00;;;18.80;99.90;;;;;;4996796;28;20034;-78
2023/05/05 07:42:14;;;;;;;3.97;2.58;;;18.80;99.90;;;;;;4993986;28;20045;-77
2023/05/05 07:44:45;;;;;;;4.47;1.95;;;18.80;99.90;;;;;;4993210;28;20030;-78
2023/05/05 07:47:11;;;;;;;2.90;2.20;;;18.80;99.90;;;;;;4993353;28;20062;-78
2023/05/05 07:49:43;;;;;;;2.97;1.90;;;18.80;99.90;;;;;;4982011;28;20060;-80
2023/05/05 07:52:08;;;;;;;2.80;2.10;;;18.70;99.90;;;;;;4997073;28;20033;-79
2023/05/05 07:54:34;;;;;;;4.65;2.30;;;18.70;99.90;;;;;;4996220;28;20030;-77
2023/05/05 07:57:00;;;;;;;3.40;2.10;;;18.70;99.90;;;;;;4998856;28;20022;-78
2023/05/05 07:59:26;;;;;;;2.53;1.88;;;18.70;99.90;;;;;;4995905;28;20050;-78
2023/05/05 08:01:52;;;;;;;5.85;2.25;;;18.70;99.90;;;;;;4980003;28;20093;-78
2023/05/05 08:04:20;;;;;;;3.40;2.17;;;18.70;99.90;;;;;;4997760;28;20114;-78
2023/05/05 08:06:48;;;;;;;4.40;1.90;;;18.60;99.90;;;;;;4995816;28;20604;-79
2023/05/05 08:09:14;;;;;;;4.13;1.75;;;18.60;99.90;;;;;;4996856;28;20105;-78
2023/05/05 08:11:40;;;;;;;3.42;2.40;;;18.50;99.90;;;;;;4996932;28;20026;-78
2023/05/05 08:14:06;;;;;;;4.05;2.00;;;18.50;99.90;;;;;;4995498;28;20026;-78
2023/05/05 08:16:32;;;;;;;5.97;2.20;;;18.50;99.90;;;;;;4996932;28;20026;-78
2023/05/05 08:18:57;;;;;;;4.85;2.30;;;18.40;99.90;;;;;;4992150;28;20060;-77
2023/05/05 08:21:23;;;;;;;4.82;1.73;;;18.30;99.90;;;;;;4993503;28;20034;-78
2023/05/05 08:23:49;;;;;;;4.20;2.00;;;18.20;99.90;;;;;;4996308;28;20060;-78
2023/05/05 08:26:14;;;;;;;6.07;2.28;;;18.20;99.90;;;;;;4998179;28;20129;-77
2023/05/05 08:28:40;;;;;;;4.05;2.22;;;18.20;99.90;;;;;;4980477;28;20022;-77
2023/05/05 08:31:07;;;;;;;9.02;2.55;;;18.00;99.90;;;;;;4990178;28;20085;-78
2023/05/05 08:33:39;;;;;;;7.38;2.38;;;17.90;99.90;;;;;;4996866;28;20030;-77
2023/05/05 08:36:05;;;;;;;11.82;2.70;;;17.80;99.90;;;;;;4979816;28;20023;-78
2023/05/05 08:38:31;;;;;;;6.75;2.97;;;17.70;99.90;;;;;;4996734;28;20023;-79
2023/05/05 08:40:57;;;;;;;6.70;2.63;;;17.60;99.90;;;;;;5002767;28;20100;-78
2023/05/05 08:43:23;;;;;;;7.32;2.85;;;17.50;99.90;;;;;;5005323;28;20118;-78
2023/05/05 08:45:52;;;;;;;7.50;2.72;;;17.50;99.90;;;;;;5006846;28;20022;-77
2023/05/05 08:48:21;;;;;;;5.60;2.83;;;17.40;99.90;;;;;;5002473;28;20050;-78
2023/05/05 08:50:52;;;;;;;7.25;3.25;;;17.40;99.90;;;;;;5007973;28;20084;-77
2023/05/05 08:53:30;;;;;;;4.07;2.60;;;17.30;99.90;;;;;;4996597;28;20026;-78
2023/05/05 08:55:59;;;;;;;6.53;2.50;;;17.30;99.90;;;;;;5001349;28;20110;-78
2023/05/05 08:58:25;;;;;;;7.47;3.17;;;17.30;99.90;;;;;;4999347;28;20014;-78
2023/05/05 09:00:51;;;;;;;7.53;3.03;;;17.20;99.90;;;;;;5002616;28;20081;-78
2023/05/05 09:03:17;;;;;;;9.38;3.63;;;17.20;99.90;;;;;;5004542;28;20061;-78
2023/05/05 09:05:50;;;;;;;6.38;2.83;;;17.20;99.90;;;;;;4998445;28;20113;-77
2023/05/05 09:08:16;;;;;;;7.25;3.30;;;17.20;99.90;;;;;;4999886;28;20096;-78
2023/05/05 09:10:43;;;;;;;5.75;2.75;;;17.30;99.90;;;;;;5004471;28;20034;-78
2023/05/05 09:13:15;;;;;;;8.48;2.83;;;17.30;99.90;;;;;;5004135;28;20117;-78
2023/05/05 09:15:41;;;;;;;8.20;2.63;;;17.40;99.90;;;;;;5004335;28;20081;-78
2023/05/05 09:18:15;;;;;;;4.53;3.10;;;17.40;99.90;;;;;;5000965;28;20022;-78
2023/05/05 09:20:41;;;;;;;8.50;3.03;;;17.50;99.90;;;;;;5007063;28;20026;-78
2023/05/05 09:23:11;;;;;;;5.65;3.13;;;17.60;99.90;;;;;;5002567;28;20022;-78
2023/05/05 09:25:38;;;;;;;6.72;2.60;;;17.60;99.90;;;;;;4998730;28;20041;-78
2023/05/05 09:28:12;;;;;;;4.50;2.55;;;17.70;99.90;;;;;;4984764;28;20084;-77
2023/05/05 09:30:45;;;;;;;4.55;2.40;;;17.80;99.90;;;;;;4998889;28;20057;-79
2023/05/05 09:33:11;;;;;;;;;;;17.90;99.90;;;;;;4999263;28;20201;-78
2023/05/05 09:35:46;;;;;;;5.35;2.90;;;17.90;99.90;;;;;;5001671;28;19918;-79
2023/05/05 09:38:12;;;;;;;4.10;2.25;;;18.00;99.90;;;;;;5002694;28;20036;-80
2023/05/05 09:40:49;;;;;;;3.72;2.20;;;18.10;99.90;;;;;;5001844;28;20022;-78
2023/05/05 09:43:16;;;;;;;8.23;3.47;;;18.10;99.90;;;;;;5001077;28;20110;-79
2023/05/05 09:45:42;;;;;;;5.15;2.22;;;18.20;99.90;;;;;;5005054;28;20038;-78
2023/05/05 09:48:23;;;;;;;3.83;1.73;;;18.30;99.90;;;;;;5002998;28;20029;-78
2023/05/05 09:50:49;;;;;;;6.55;1.98;;;18.40;99.90;;;;;;5002895;28;20093;-78
2023/05/05 09:53:14;;;;;;;3.88;1.67;;;18.50;99.90;;;;;;4997994;28;20061;-78
2023/05/05 09:55:40;;;;;;;2.67;1.58;;;18.50;99.90;;;;;;5000507;28;20034;-78
2023/05/05 09:58:27;;;;;;;5.95;1.63;;;18.60;99.90;;;;;;5001801;28;20068;-79
2023/05/05 10:00:54;;;;;;;6.78;1.75;;;18.70;99.90;;;;;;4988367;28;20085;-79
2023/05/05 10:03:20;;;;;;;2.88;1.70;;;18.80;99.90;;;;;;5003521;28;20081;-78
2023/05/05 10:05:52;;;;;;;6.07;2.08;;;18.90;99.90;;;;;;4997751;28;20034;-79
2023/05/05 10:08:21;;;;;;;6.18;3.10;;;19.00;99.90;;;;;;4993777;28;20025;-79
2023/05/05 10:10:52;;;;;;;3.63;2.25;;;19.10;99.90;;;;;;4987585;28;20449;-77
2023/05/05 10:13:21;;;;;;;2.58;1.60;;;19.20;99.90;;;;;;4997266;28;20026;-78
2023/05/05 10:15:52;;;;;;;2.60;1.63;;;19.30;99.90;;;;;;4998782;28;20033;-77
2023/05/05 10:18:26;;;;;;;2.38;1.70;;;19.40;99.90;;;;;;4999078;28;20023;-79
2023/05/05 10:20:58;;;;;;;4.35;2.42;;;19.50;99.90;;;;;;4999773;28;20049;-78
2023/05/05 10:23:46;;;;;;;1.52;1.30;;;19.60;99.90;;;;;;5001227;28;20045;-78
2023/05/05 10:26:13;;;;;;;3.63;1.63;;;19.70;99.90;;;;;;4992004;28;20073;-78
2023/05/05 10:28:41;;;;;;;5.53;1.45;;;19.80;99.90;;;;;;4995086;28;20509;-77
2023/05/05 10:31:15;;;;;;;5.32;1.58;;;19.90;99.90;;;;;;4982774;28;20061;-78
2023/05/05 10:33:52;;;;;;;2.28;1.55;;;20.10;99.90;;;;;;5001031;28;20030;-78
2023/05/05 10:36:19;;;;;;;3.80;1.55;;;20.10;99.90;;;;;;5001485;28;20030;-78
2023/05/05 10:38:45;;;;;;;2.63;1.50;;;20.20;99.90;;;;;;4993948;28;20077;-77
2023/05/05 10:41:12;;;;;;;5.43;1.50;;;20.30;99.90;;;;;;4995002;28;20034;-78
2023/05/05 10:43:39;;;;;;;3.88;1.80;;;20.40;99.90;;;;;;4995901;28;20053;-78
2023/05/05 10:46:05;;;;;;;3.90;1.40;;;20.50;99.90;;;;;;4998890;28;20039;-80
2023/05/05 10:48:50;;;;;;;3.95;1.92;;;20.50;99.90;;;;;;4999819;28;20044;-79
2023/05/05 10:51:40;;;;;;;3.40;1.92;;;20.60;99.90;;;;;;4998667;28;20034;-77
2023/05/05 10:54:25;;;;;;;4.13;1.67;;;20.70;99.90;;;;;;4995527;28;20022;-78
2023/05/05 10:56:51;;;;;;;9.55;1.70;;;20.80;99.90;;;;;;4982441;28;20034;-79
2023/05/05 10:59:37;;;;;;;3.38;1.45;;;20.80;99.90;;;;;;4992656;28;20039;-78
2023/05/05 11:02:27;;;;;;;2.15;1.55;;;20.80;99.90;;;;;;4993149;28;20453;-78
2023/05/05 11:05:14;;;;;;;2.65;1.40;;;20.90;99.90;;;;;;4985040;28;20042;-78
2023/05/05 11:07:41;;;;;;;2.47;1.30;;;20.90;99.90;;;;;;4991872;28;20026;-77
2023/05/05 11:10:09;;;;;;;2.47;1.42;;;20.90;99.90;;;;;;4991426;28;20390;-77
2023/05/05 11:12:56;;;;;;;2.53;1.50;;;20.80;99.90;;;;;;4994516;28;20037;-79
2023/05/05 11:15:28;;;;;;;2.90;1.50;;;20.80;99.90;;;;;;4993045;28;20432;-78
2023/05/05 11:17:55;;;;;;;1.55;1.20;;;20.80;99.90;;;;;;4988626;28;20030;-77
2023/05/05 11:20:38;;;;;;;2.78;1.38;;;20.80;99.90;;;;;;4987735;28;20149;-79
2023/05/05 11:23:03;;;;;;;4.55;1.40;;;20.90;99.90;;;;;;4998929;28;20500;-79
2023/05/05 11:25:43;;;;;;;2.03;1.30;;;21.00;99.90;;;;;;4994627;28;20034;-78
2023/05/05 11:28:12;;;;;;;2.67;1.52;;;21.00;99.90;;;;;;4993585;28;20038;-79
2023/05/05 11:30:53;;;;;;;1.85;1.38;;;21.10;99.90;;;;;;4992007;28;20042;-78
2023/05/05 11:33:27;;;;;;;3.05;1.55;;;21.10;99.90;;;;;;4996214;28;20034;-79
2023/05/05 11:35:59;;;;;;;3.00;1.17;;;21.10;99.90;;;;;;4992499;28;20496;-78
2023/05/05 11:38:51;;;;;;;2.50;1.30;;;21.20;99.90;;;;;;4994078;28;20052;-78
2023/05/05 11:41:48;;;;;;;1.77;1.17;;;21.20;99.90;;;;;;4995590;28;20030;-78
2023/05/05 11:44:16;;;;;;;4.25;1.73;;;21.20;99.90;;;;;;4993736;28;20038;-78
2023/05/05 11:47:04;;;;;;;3.40;1.50;;;21.30;99.90;;;;;;4994501;28;20955;-77
2023/05/05 11:49:30;;;;;;;1.83;1.10;;;21.40;99.90;;;;;;4963019;28;20107;-78
2023/05/05 11:51:56;;;;;;;4.22;1.60;;;21.40;99.90;;;;;;4993713;28;20113;-78
2023/05/05 11:54:23;;;;;;;6.90;1.35;;;21.40;99.90;;;;;;4991963;28;20018;-78
2023/05/05 11:56:50;;;;;;;4.25;1.63;;;21.40;99.90;;;;;;4994754;28;20030;-78
2023/05/05 11:59:18;;;;;;;3.45;1.50;;;21.40;99.90;;;;;;4991399;28;20022;-78
2023/05/05 12:01:44;;;;;;;1.95;1.40;;;21.40;99.90;;;;;;4972599;28;20034;-77
2023/05/05 12:04:14;;;;;;;3.80;1.33;;;21.40;99.90;;;;;;4990977;28;20061;-79
2023/05/05 12:06:44;;;;;;;4.15;2.30;;;21.40;99.90;;;;;;4993014;28;20041;-80
2023/05/05 12:09:17;;;;;;;4.47;1.73;;;21.50;99.90;;;;;;4992509;28;20058;-81
2023/05/05 12:11:52;;;;;;;;;;;21.50;99.70;;;;;;4974912;28;20126;-77
2023/05/05 12:14:21;;;;;;;2.25;1.25;;;21.50;99.30;;;;;;4971964;28;19979;-77
2023/05/05 12:17:06;;;;;;;2.08;1.20;;;21.50;99.20;;;;;;4984487;28;20105;-78
2023/05/05 12:19:32;;;;;;;6.00;1.70;;;21.50;99.10;;;;;;4988531;28;20488;-77
2023/05/05 12:22:02;;;;;;;3.00;1.80;;;21.50;99.20;;;;;;4988700;28;20049;-77
2023/05/05 12:24:31;;;;;;;2.90;1.20;;;21.60;98.80;;;;;;4988184;28;20065;-77
2023/05/05 12:27:10;;;;;;;3.45;1.80;;;21.50;98.40;;;;;;4973621;28;20037;-77
2023/05/05 12:29:42;;;;;;;2.50;1.38;;;21.60;98.50;;;;;;4989272;28;20022;-78
2023/05/05 12:32:24;;;;;;;2.63;1.50;;;21.60;98.40;;;;;;4988736;28;20030;-78
2023/05/05 12:34:56;;;;;;;3.03;1.85;;;21.60;98.50;;;;;;4991099;28;20029;-78
2023/05/05 12:37:23;;;;;;;3.25;2.20;;;21.70;98.20;;;;;;4976155;28;20037;-77
2023/05/05 12:39:55;;;;;;;2.50;1.48;;;21.70;98.00;;;;;;4991835;28;20019;-77
2023/05/05 12:42:23;;;;;;;3.92;1.50;;;21.70;97.60;;;;;;4990639;28;20026;-78
2023/05/05 12:44:55;;;;;;;2.90;1.25;;;21.70;97.60;;;;;;4993180;28;20026;-78
2023/05/05 12:47:31;;;;;;;4.60;1.30;;;21.70;97.30;;;;;;4991832;28;20031;-78
2023/05/05 12:50:01;;;;;;;3.88;1.30;;;21.70;97.00;;;;;;4986415;28;20117;-78
2023/05/05 12:52:41;;;;;;;7.93;2.65;;;21.70;96.60;;;;;;4990854;28;20073;-78
2023/05/05 12:55:07;;;;;;;4.28;2.50;;;21.60;96.40;;;;;;4993903;28;20035;-78
2023/05/05 12:57:36;;;;;;;3.10;1.80;;;21.60;96.30;;;;;;4991310;28;20049;-78
2023/05/05 13:00:24;;;;;;;3.13;1.45;;;21.60;96.60;;;;;;4991412;28;20026;-77